Time;durP1;ratioP1;P1;durP2;ratioP2;P2;SDS_P1;SDS_P2;PMS_P1;PMS_P2;Temp;Humidity;BMP_temperature;BMP_pressure;BME280_temperature;BME280_humidity;BME280_pressure;Samples;Min_cycle;Max_cycle;Signal;HPM_P1;HPM_P2
2022/08/13 00:00:32;;;;;;;6.50;3.90;;;;;;;;;;6212938;23;20015;-86
2022/08/13 00:03:02;;;;;;;9.38;4.65;;;;;;;;;;6210702;23;20117;-86
2022/08/13 00:05:28;;;;;;;12.57;3.78;;;;;;;;;;6211602;23;20014;-86
2022/08/13 00:07:54;;;;;;;4.57;3.35;;;;;;;;;;6209233;23;20008;-86
2022/08/13 00:13:04;;;;;;;10.27;4.30;;;;;;;;;;6237728;23;20008;-87
2022/08/13 00:15:33;;;;;;;12.07;4.47;;;;;;;;;;6207601;23;20420;-87
2022/08/13 00:18:04;;;;;;;8.00;4.10;;;;;;;;;;6208676;23;20044;-86
2022/08/13 00:20:41;;;;;;;6.68;4.38;;;;;;;;;;6236055;23;20059;-86
2022/08/13 00:23:09;;;;;;;12.38;4.82;;;;;;;;;;6210334;23;20020;-86
2022/08/13 00:25:35;;;;;;;5.25;4.10;;;;;;;;;;6209827;23;20046;-86
2022/08/13 00:28:02;;;;;;;7.20;3.70;;;;;;;;;;6208468;23;20012;-86
2022/08/13 00:30:31;;;;;;;8.65;4.20;;;;;;;;;;6209890;23;20483;-86
2022/08/13 00:32:59;;;;;;;8.00;3.75;;;;;;;;;;6209332;22;20012;-86
2022/08/13 00:35:25;;;;;;;9.57;4.95;;;;;;;;;;6210103;23;20016;-86
2022/08/13 00:37:52;;;;;;;12.80;4.35;;;;;;;;;;6208259;23;20012;-86
2022/08/13 00:40:18;;;;;;;10.43;4.03;;;;;;;;;;6236984;23;20015;-86
2022/08/13 00:42:44;;;;;;;12.05;4.28;;;;;;;;;;6209025;23;20008;-86
2022/08/13 00:45:10;;;;;;;10.38;4.60;;;;;;;;;;6237058;23;20004;-86
2022/08/13 00:50:22;;;;;;;9.10;4.43;;;;;;;;;;6237531;23;20019;-87
2022/08/13 00:52:49;;;;;;;8.05;4.35;;;;;;;;;;6208387;23;20015;-87
2022/08/13 00:55:17;;;;;;;7.45;3.95;;;;;;;;;;6207737;23;20028;-86
2022/08/13 00:57:47;;;;;;;11.25;4.78;;;;;;;;;;6209005;23;20016;-86
2022/08/13 01:00:15;;;;;;;6.55;4.15;;;;;;;;;;6234798;23;20026;-86
2022/08/13 01:02:42;;;;;;;6.63;4.68;;;;;;;;;;6208056;23;20034;-86
2022/08/13 01:05:09;;;;;;;9.73;4.90;;;;;;;;;;6208759;23;20012;-86
2022/08/13 01:07:36;;;;;;;6.55;4.50;;;;;;;;;;6208847;23;20054;-87
2022/08/13 01:10:03;;;;;;;7.75;4.30;;;;;;;;;;6210178;23;20522;-87
2022/08/13 01:12:29;;;;;;;5.78;4.30;;;;;;;;;;6209704;23;20004;-87
2022/08/13 01:14:57;;;;;;;9.02;5.05;;;;;;;;;;6206116;23;20015;-87
2022/08/13 01:17:23;;;;;;;9.20;4.25;;;;;;;;;;6209828;23;20881;-86
2022/08/13 01:19:50;;;;;;;11.70;4.60;;;;;;;;;;6237493;23;20428;-86
2022/08/13 01:22:16;;;;;;;10.63;4.50;;;;;;;;;;6210813;23;20179;-86
2022/08/13 01:24:43;;;;;;;5.57;3.90;;;;;;;;;;6210580;23;20189;-86
2022/08/13 01:27:10;;;;;;;6.03;4.38;;;;;;;;;;6208952;23;20016;-86
2022/08/13 01:29:37;;;;;;;10.20;4.78;;;;;;;;;;6238108;23;20011;-85
2022/08/13 01:32:05;;;;;;;11.75;5.18;;;;;;;;;;6204031;22;20023;-86
2022/08/13 01:34:32;;;;;;;8.90;4.47;;;;;;;;;;6207355;23;20058;-86
2022/08/13 01:36:58;;;;;;;6.13;4.68;;;;;;;;;;6206548;23;20051;-86
2022/08/13 01:39:28;;;;;;;8.93;6.00;;;;;;;;;;6206694;23;20000;-86
2022/08/13 01:41:55;;;;;;;8.45;4.82;;;;;;;;;;6202343;23;20017;-87
2022/08/13 01:44:22;;;;;;;8.07;4.78;;;;;;;;;;6203356;23;20004;-86
2022/08/13 01:52:32;;;;;;;8.68;4.25;;;;;;;;;;6203955;23;20019;-86
2022/08/13 01:54:58;;;;;;;7.35;5.20;;;;;;;;;;6203723;23;20004;-86
2022/08/13 01:57:24;;;;;;;6.68;4.85;;;;;;;;;;6201142;23;20016;-87
2022/08/13 01:59:53;;;;;;;6.57;4.53;;;;;;;;;;6204956;23;20006;-86
2022/08/13 02:02:19;;;;;;;11.50;5.30;;;;;;;;;;6203307;23;20009;-86
2022/08/13 02:04:45;;;;;;;9.75;5.18;;;;;;;;;;6203194;23;20016;-86
2022/08/13 02:07:13;;;;;;;8.85;5.20;;;;;;;;;;6201734;23;20028;-86
2022/08/13 02:09:42;;;;;;;7.53;5.03;;;;;;;;;;6204529;23;20426;-87
2022/08/13 02:12:10;;;;;;;9.13;4.40;;;;;;;;;;6203588;23;20079;-86
2022/08/13 02:14:36;;;;;;;6.45;4.57;;;;;;;;;;6205232;23;20017;-87
2022/08/13 02:17:24;;;;;;;8.75;5.28;;;;;;;;;;6201051;23;20429;-87
2022/08/13 02:19:51;;;;;;;8.02;4.53;;;;;;;;;;6205764;23;20013;-87
2022/08/13 02:22:17;;;;;;;12.45;5.10;;;;;;;;;;6205622;23;20533;-87
2022/08/13 02:24:49;;;;;;;8.43;4.72;;;;;;;;;;6203467;23;20008;-86
2022/08/13 02:27:17;;;;;;;7.97;4.65;;;;;;;;;;6202578;23;20009;-86
2022/08/13 02:29:44;;;;;;;11.98;5.25;;;;;;;;;;6204981;23;20012;-86
2022/08/13 02:32:11;;;;;;;11.65;4.88;;;;;;;;;;6205841;22;20020;-85
2022/08/13 02:34:39;;;;;;;11.05;5.07;;;;;;;;;;6207367;23;20096;-85
2022/08/13 02:37:05;;;;;;;9.63;5.45;;;;;;;;;;6205725;23;20437;-85
2022/08/13 02:39:31;;;;;;;7.95;5.97;;;;;;;;;;6205367;23;20137;-86
2022/08/13 02:41:57;;;;;;;12.65;5.50;;;;;;;;;;6204819;23;20436;-85
2022/08/13 02:44:25;;;;;;;11.23;6.10;;;;;;;;;;6205267;23;20073;-86
2022/08/13 02:46:51;;;;;;;8.85;5.28;;;;;;;;;;6205624;23;20102;-86
2022/08/13 02:49:21;;;;;;;9.15;4.93;;;;;;;;;;6206998;23;20384;-86
2022/08/13 02:51:47;;;;;;;8.60;4.97;;;;;;;;;;6208007;23;20004;-86
2022/08/13 02:54:16;;;;;;;9.30;5.35;;;;;;;;;;6205530;23;20128;-85
2022/08/13 02:56:42;;;;;;;9.25;5.90;;;;;;;;;;6205493;23;20011;-85
2022/08/13 02:59:10;;;;;;;10.70;5.20;;;;;;;;;;6208503;23;20450;-86
2022/08/13 03:01:38;;;;;;;7.97;5.50;;;;;;;;;;6206489;23;20151;-86
2022/08/13 03:04:05;;;;;;;8.52;5.72;;;;;;;;;;6207029;23;20005;-85
2022/08/13 03:06:31;;;;;;;14.63;6.07;;;;;;;;;;6205273;23;20008;-85
2022/08/13 03:09:01;;;;;;;11.57;5.93;;;;;;;;;;6205213;23;20035;-86
2022/08/13 03:11:28;;;;;;;13.32;6.28;;;;;;;;;;6205287;23;20348;-86
2022/08/13 03:13:57;;;;;;;9.07;5.93;;;;;;;;;;6205643;23;20013;-85
2022/08/13 03:16:25;;;;;;;8.73;6.07;;;;;;;;;;6203838;23;20012;-85
2022/08/13 03:18:53;;;;;;;17.13;6.35;;;;;;;;;;6206701;23;20008;-85
2022/08/13 03:21:20;;;;;;;10.93;6.00;;;;;;;;;;6205773;23;20008;-85
2022/08/13 03:23:46;;;;;;;11.18;6.15;;;;;;;;;;6205596;23;20011;-85
2022/08/13 03:26:12;;;;;;;10.18;5.78;;;;;;;;;;6205553;23;20009;-86
2022/08/13 03:28:39;;;;;;;14.60;5.80;;;;;;;;;;6204906;23;20541;-85
2022/08/13 03:31:05;;;;;;;8.48;5.80;;;;;;;;;;6203291;23;20009;-86
2022/08/13 03:33:46;;;;;;;13.45;5.97;;;;;;;;;;6187528;22;20640;-86
2022/08/13 03:36:13;;;;;;;9.95;5.72;;;;;;;;;;6210072;23;20004;-86
2022/08/13 03:38:39;;;;;;;10.85;6.07;;;;;;;;;;6238467;23;20008;-86
2022/08/13 03:41:11;;;;;;;15.00;6.75;;;;;;;;;;6210500;23;20004;-86
2022/08/13 03:43:38;;;;;;;6.38;5.45;;;;;;;;;;6211200;23;20015;-85
2022/08/13 03:46:04;;;;;;;9.93;6.38;;;;;;;;;;6208690;23;20020;-86
2022/08/13 03:48:31;;;;;;;8.80;5.45;;;;;;;;;;6210311;23;20082;-86
2022/08/13 03:51:00;;;;;;;13.27;5.65;;;;;;;;;;6209822;23;20011;-86
2022/08/13 03:53:25;;;;;;;19.65;6.00;;;;;;;;;;6237517;23;20004;-86
2022/08/13 03:55:52;;;;;;;9.35;5.95;;;;;;;;;;6211404;23;20003;-86
2022/08/13 03:58:18;;;;;;;10.38;6.05;;;;;;;;;;6208937;23;20352;-86
2022/08/13 04:00:48;;;;;;;18.55;6.22;;;;;;;;;;6210299;23;20078;-86
2022/08/13 04:03:20;;;;;;;9.18;5.53;;;;;;;;;;6209390;23;20016;-85
2022/08/13 04:05:46;;;;;;;8.07;6.05;;;;;;;;;;6210457;23;20091;-85
2022/08/13 04:08:13;;;;;;;13.45;5.72;;;;;;;;;;6209415;23;20012;-85
2022/08/13 04:10:40;;;;;;;17.10;6.72;;;;;;;;;;6237290;23;20404;-85
2022/08/13 04:13:11;;;;;;;13.30;6.55;;;;;;;;;;6236229;23;20000;-86
2022/08/13 04:15:37;;;;;;;9.70;6.28;;;;;;;;;;6236228;23;20006;-86
2022/08/13 04:18:03;;;;;;;9.40;6.05;;;;;;;;;;6235194;23;20024;-86
2022/08/13 04:20:30;;;;;;;8.50;5.90;;;;;;;;;;6209759;23;20095;-85
2022/08/13 04:22:56;;;;;;;8.45;6.22;;;;;;;;;;6210153;23;20391;-85
2022/08/13 04:25:23;;;;;;;10.07;6.45;;;;;;;;;;6210549;23;20012;-86
2022/08/13 04:27:49;;;;;;;10.60;6.15;;;;;;;;;;6236443;23;20000;-86
2022/08/13 04:30:20;;;;;;;11.35;6.18;;;;;;;;;;6210035;23;20651;-85
2022/08/13 04:32:52;;;;;;;11.75;6.10;;;;;;;;;;6203684;22;20016;-86
2022/08/13 04:35:18;;;;;;;15.88;6.50;;;;;;;;;;6206158;23;20377;-85
2022/08/13 04:37:44;;;;;;;12.60;6.65;;;;;;;;;;6205152;23;20066;-86
2022/08/13 04:40:12;;;;;;;13.35;6.18;;;;;;;;;;6204950;23;20070;-86
2022/08/13 04:42:48;;;;;;;7.75;5.80;;;;;;;;;;6201997;23;20135;-86
2022/08/13 04:45:14;;;;;;;17.05;5.90;;;;;;;;;;6202733;23;20098;-86
2022/08/13 04:47:42;;;;;;;8.77;5.40;;;;;;;;;;6202003;23;20519;-85
2022/08/13 04:50:09;;;;;;;9.23;5.82;;;;;;;;;;6203294;23;20005;-85
2022/08/13 04:52:35;;;;;;;7.38;5.72;;;;;;;;;;6205344;23;20146;-86
2022/08/13 04:55:02;;;;;;;10.45;6.30;;;;;;;;;;6205109;23;20012;-86
2022/08/13 04:57:29;;;;;;;10.45;5.30;;;;;;;;;;6204553;23;20058;-85
2022/08/13 04:59:55;;;;;;;9.88;5.88;;;;;;;;;;6206309;23;20020;-86
2022/08/13 05:02:21;;;;;;;10.88;5.85;;;;;;;;;;6206872;23;20004;-86
2022/08/13 05:04:48;;;;;;;9.05;5.50;;;;;;;;;;6206999;23;20043;-87
2022/08/13 05:07:15;;;;;;;10.50;5.30;;;;;;;;;;6204221;23;20734;-86
2022/08/13 05:09:41;;;;;;;13.32;5.00;;;;;;;;;;6205773;23;20004;-86
2022/08/13 05:12:08;;;;;;;6.47;4.82;;;;;;;;;;6204256;23;20032;-86
2022/08/13 05:14:35;;;;;;;10.15;5.97;;;;;;;;;;6205179;23;20444;-86
2022/08/13 05:17:03;;;;;;;13.45;5.88;;;;;;;;;;6203254;23;20066;-85
2022/08/13 05:19:30;;;;;;;7.55;5.65;;;;;;;;;;6204055;23;20004;-85
2022/08/13 05:21:55;;;;;;;7.43;4.97;;;;;;;;;;6205421;23;20016;-86
2022/08/13 05:24:22;;;;;;;6.95;5.22;;;;;;;;;;6204792;23;20012;-85
2022/08/13 05:26:48;;;;;;;11.10;5.78;;;;;;;;;;6203195;23;20011;-85
2022/08/13 05:29:14;;;;;;;7.28;4.95;;;;;;;;;;6207091;23;20063;-85
2022/08/13 05:31:40;;;;;;;10.77;5.28;;;;;;;;;;6203487;22;20001;-86
2022/08/13 05:34:07;;;;;;;12.75;5.93;;;;;;;;;;6238384;23;20004;-85
2022/08/13 05:36:33;;;;;;;12.57;5.00;;;;;;;;;;6208931;23;20043;-85
2022/08/13 05:38:59;;;;;;;6.03;4.72;;;;;;;;;;6211332;23;20012;-85
2022/08/13 05:41:27;;;;;;;10.23;5.07;;;;;;;;;;6209272;23;20641;-86
2022/08/13 05:43:54;;;;;;;8.63;5.22;;;;;;;;;;6210732;23;20468;-86
2022/08/13 05:46:23;;;;;;;9.68;6.20;;;;;;;;;;6209833;23;20012;-85
2022/08/13 05:48:58;;;;;;;7.55;5.25;;;;;;;;;;6211742;23;20008;-85
2022/08/13 05:51:34;;;;;;;19.17;6.23;;;;;;;;;;6238217;23;20046;-85
2022/08/13 05:54:00;;;;;;;12.07;4.97;;;;;;;;;;6212892;23;20004;-85
2022/08/13 05:56:36;;;;;;;9.32;5.55;;;;;;;;;;6210622;23;20024;-86
2022/08/13 05:59:03;;;;;;;10.93;4.70;;;;;;;;;;6212783;23;20012;-86
2022/08/13 06:04:14;;;;;;;8.70;5.15;;;;;;;;;;6239593;23;20019;-85
2022/08/13 06:06:44;;;;;;;7.65;5.03;;;;;;;;;;6209954;23;20039;-86
2022/08/13 06:09:10;;;;;;;8.43;5.05;;;;;;;;;;6211929;23;20603;-85
2022/08/13 06:11:39;;;;;;;9.65;4.95;;;;;;;;;;6208250;23;20447;-86
2022/08/13 06:14:05;;;;;;;15.73;4.88;;;;;;;;;;6209797;23;20348;-86
2022/08/13 06:16:32;;;;;;;8.57;4.85;;;;;;;;;;6207321;23;20436;-86
2022/08/13 06:18:58;;;;;;;19.38;5.03;;;;;;;;;;6211387;23;20073;-86
2022/08/13 06:21:25;;;;;;;8.60;5.20;;;;;;;;;;6209029;23;20441;-86
2022/08/13 06:23:52;;;;;;;13.77;4.80;;;;;;;;;;6211162;23;20066;-86
2022/08/13 06:26:19;;;;;;;6.93;4.65;;;;;;;;;;6208647;23;20008;-86
2022/08/13 06:28:46;;;;;;;6.07;4.15;;;;;;;;;;6238300;23;20042;-86
2022/08/13 06:31:25;;;;;;;10.70;4.28;;;;;;;;;;6209849;23;20062;-86
2022/08/13 06:33:52;;;;;;;9.02;4.03;;;;;;;;;;6238715;22;20020;-86
2022/08/13 06:36:18;;;;;;;8.85;3.92;;;;;;;;;;6208676;23;20007;-86
2022/08/13 06:38:48;;;;;;;7.95;4.28;;;;;;;;;;6233819;23;20337;-87
2022/08/13 06:41:16;;;;;;;8.38;4.63;;;;;;;;;;6205873;23;20248;-87
2022/08/13 06:43:43;;;;;;;10.55;4.78;;;;;;;;;;6234618;23;20000;-86
2022/08/13 06:46:11;;;;;;;6.68;4.47;;;;;;;;;;6207453;23;20004;-87
2022/08/13 06:48:37;;;;;;;8.52;4.60;;;;;;;;;;6206398;23;20004;-87
2022/08/13 06:51:05;;;;;;;10.60;4.15;;;;;;;;;;6233337;23;20008;-87
2022/08/13 06:53:32;;;;;;;7.50;4.40;;;;;;;;;;6208289;23;20015;-86
2022/08/13 06:55:58;;;;;;;7.72;4.65;;;;;;;;;;6208473;23;20403;-86
2022/08/13 06:58:28;;;;;;;9.35;4.35;;;;;;;;;;6205675;23;20338;-86
2022/08/13 07:00:55;;;;;;;8.98;3.85;;;;;;;;;;6208123;23;20416;-87
2022/08/13 07:03:25;;;;;;;6.57;3.70;;;;;;;;;;6206588;23;20415;-87
2022/08/13 07:05:51;;;;;;;4.88;3.28;;;;;;;;;;6235052;23;20454;-87
2022/08/13 07:08:17;;;;;;;10.88;3.83;;;;;;;;;;6208270;23;20087;-87
2022/08/13 07:10:46;;;;;;;10.25;3.38;;;;;;;;;;6206146;23;20403;-87
2022/08/13 07:13:12;;;;;;;9.88;3.00;;;;;;;;;;6207898;23;20408;-87
2022/08/13 07:15:40;;;;;;;7.38;3.20;;;;;;;;;;6205125;23;20221;-87
2022/08/13 07:18:07;;;;;;;7.45;3.22;;;;;;;;;;6206797;23;20012;-87
2022/08/13 07:20:33;;;;;;;4.03;2.92;;;;;;;;;;6206480;23;20008;-86
2022/08/13 07:22:59;;;;;;;16.33;2.80;;;;;;;;;;6207731;23;20059;-87
2022/08/13 07:25:28;;;;;;;3.83;2.78;;;;;;;;;;6206705;23;20012;-87
2022/08/13 07:27:54;;;;;;;5.25;3.00;;;;;;;;;;6233688;23;20539;-87
2022/08/13 07:30:21;;;;;;;7.45;3.00;;;;;;;;;;6207049;23;20008;-87
2022/08/13 07:32:51;;;;;;;11.30;2.72;;;;;;;;;;6206575;22;20355;-87
2022/08/13 07:35:17;;;;;;;5.82;2.60;;;;;;;;;;6235474;23;20024;-86
2022/08/13 07:37:43;;;;;;;4.88;2.40;;;;;;;;;;6232570;23;20004;-87
2022/08/13 07:40:09;;;;;;;3.70;2.45;;;;;;;;;;6205133;23;20391;-87
2022/08/13 07:42:40;;;;;;;8.50;2.70;;;;;;;;;;6205891;23;20336;-87
2022/08/13 07:45:06;;;;;;;2.70;2.40;;;;;;;;;;6205466;23;20004;-86
2022/08/13 07:47:33;;;;;;;6.60;2.13;;;;;;;;;;6232559;23;20014;-87
2022/08/13 07:50:01;;;;;;;3.08;2.03;;;;;;;;;;6204511;23;20570;-87
2022/08/13 07:52:30;;;;;;;7.50;2.70;;;;;;;;;;6205558;23;20008;-86
2022/08/13 07:55:00;;;;;;;5.22;2.30;;;;;;;;;;6205619;23;20036;-86
2022/08/13 07:57:29;;;;;;;4.90;2.38;;;;;;;;;;6206187;23;20039;-87
2022/08/13 07:59:55;;;;;;;5.07;2.72;;;;;;;;;;6208130;23;20019;-86
2022/08/13 08:02:22;;;;;;;6.07;2.20;;;;;;;;;;6208286;23;20528;-86
2022/08/13 08:04:48;;;;;;;4.25;2.00;;;;;;;;;;6208221;23;20550;-86
2022/08/13 08:07:14;;;;;;;7.43;2.00;;;;;;;;;;6208490;23;20607;-86
2022/08/13 08:09:40;;;;;;;8.73;2.30;;;;;;;;;;6207340;23;20039;-86
2022/08/13 08:14:51;;;;;;;2.67;2.10;;;;;;;;;;6234365;23;20019;-87
2022/08/13 08:17:17;;;;;;;9.23;2.20;;;;;;;;;;6208604;23;20428;-86
2022/08/13 08:19:46;;;;;;;6.88;1.83;;;;;;;;;;6210462;23;20008;-87
2022/08/13 08:22:13;;;;;;;5.40;1.75;;;;;;;;;;6235742;23;19999;-86
2022/08/13 08:24:39;;;;;;;6.88;1.90;;;;;;;;;;6210422;23;20065;-85
2022/08/13 08:27:09;;;;;;;3.90;2.00;;;;;;;;;;6236476;23;20020;-85
2022/08/13 08:29:42;;;;;;;6.90;1.98;;;;;;;;;;6208796;23;20014;-85
2022/08/13 08:32:08;;;;;;;4.15;2.20;;;;;;;;;;6206949;22;20000;-84
2022/08/13 08:34:36;;;;;;;5.65;2.53;;;;;;;;;;6210389;23;20340;-89
2022/08/13 08:37:02;;;;;;;4.25;1.77;;;;;;;;;;6237483;23;20004;-88
2022/08/13 08:42:35;;;;;;;8.00;1.90;;;;;;;;;;6237657;23;20023;-88
2022/08/13 08:45:01;;;;;;;5.05;1.83;;;;;;;;;;6236343;23;20511;-86
2022/08/13 08:47:32;;;;;;;9.48;2.03;;;;;;;;;;6210238;23;20459;-87
2022/08/13 08:49:58;;;;;;;5.20;1.77;;;;;;;;;;6237359;23;19996;-86
2022/08/13 08:53:19;;;;;;;3.42;1.60;;;;;;;;;;6210041;23;20012;-86
2022/08/13 08:55:12;;;;;;;2.58;2.10;;;;;;;;;;6234921;23;20008;-87
2022/08/13 08:57:39;;;;;;;2.17;1.90;;;;;;;;;;6209433;23;20011;-86
2022/08/13 09:00:05;;;;;;;9.15;2.28;;;;;;;;;;6208634;23;20326;-86
2022/08/13 09:02:33;;;;;;;4.65;2.20;;;;;;;;;;6208720;23;20012;-86
2022/08/13 09:05:00;;;;;;;4.32;1.58;;;;;;;;;;6209626;23;20459;-87
2022/08/13 09:07:27;;;;;;;3.10;1.98;;;;;;;;;;6209344;23;20008;-87
2022/08/13 09:09:55;;;;;;;3.70;1.90;;;;;;;;;;6236532;23;20000;-87
2022/08/13 09:12:25;;;;;;;4.55;2.00;;;;;;;;;;6208524;23;20008;-87
2022/08/13 09:14:51;;;;;;;8.05;1.70;;;;;;;;;;6208393;23;20576;-88
2022/08/13 09:17:18;;;;;;;2.92;1.77;;;;;;;;;;6208413;23;20095;-88
2022/08/13 09:19:44;;;;;;;5.45;1.90;;;;;;;;;;6207691;23;20008;-88
2022/08/13 09:22:14;;;;;;;4.05;1.70;;;;;;;;;;6209130;23;20018;-88
2022/08/13 09:24:46;;;;;;;1.55;1.45;;;;;;;;;;6207716;23;20008;-88
2022/08/13 09:27:15;;;;;;;5.47;2.13;;;;;;;;;;6235400;23;20428;-88
2022/08/13 09:29:42;;;;;;;3.63;2.00;;;;;;;;;;6236313;23;20027;-88
2022/08/13 09:32:09;;;;;;;2.88;1.67;;;;;;;;;;6208231;22;20420;-88
2022/08/13 09:34:37;;;;;;;1.83;1.73;;;;;;;;;;6210045;23;20024;-89
2022/08/13 09:37:03;;;;;;;7.50;2.10;;;;;;;;;;6208916;23;20398;-88
2022/08/13 09:39:32;;;;;;;8.18;2.33;;;;;;;;;;6235923;23;20027;-88
2022/08/13 09:42:00;;;;;;;6.78;1.70;;;;;;;;;;6235792;23;19996;-88
2022/08/13 09:44:26;;;;;;;4.88;1.60;;;;;;;;;;6208492;23;20008;-89
2022/08/13 09:46:53;;;;;;;2.40;2.03;;;;;;;;;;6209570;23;20471;-88
2022/08/13 09:49:20;;;;;;;3.45;1.85;;;;;;;;;;6208935;23;20004;-89
2022/08/13 09:51:46;;;;;;;5.35;2.20;;;;;;;;;;6209976;23;20004;-88
2022/08/13 09:54:12;;;;;;;5.97;1.90;;;;;;;;;;6210195;23;20079;-89
2022/08/13 09:56:39;;;;;;;2.45;1.60;;;;;;;;;;6208305;23;20087;-89
2022/08/13 09:59:05;;;;;;;5.47;2.72;;;;;;;;;;6210177;23;20016;-89
2022/08/13 10:01:34;;;;;;;2.10;1.88;;;;;;;;;;6207230;23;20087;-88
2022/08/13 10:04:00;;;;;;;2.97;1.77;;;;;;;;;;6209277;23;20062;-89
2022/08/13 10:06:32;;;;;;;2.53;1.52;;;;;;;;;;6209145;23;20023;-89
2022/08/13 10:09:00;;;;;;;2.25;1.63;;;;;;;;;;6208483;23;20019;-88
2022/08/13 10:11:27;;;;;;;1.98;1.70;;;;;;;;;;6205439;23;20008;-88
2022/08/13 10:13:54;;;;;;;2.78;1.70;;;;;;;;;;6209491;23;20383;-89
2022/08/13 10:16:20;;;;;;;2.05;1.75;;;;;;;;;;6205426;23;20035;-90
2022/08/13 10:18:46;;;;;;;2.70;1.88;;;;;;;;;;6209875;23;20018;-89
2022/08/13 10:21:13;;;;;;;4.63;1.80;;;;;;;;;;6208452;23;20004;-89
2022/08/13 10:23:39;;;;;;;2.45;2.25;;;;;;;;;;6208470;23;20772;-88
2022/08/13 10:26:05;;;;;;;2.70;1.90;;;;;;;;;;6209879;23;20335;-89
2022/08/13 10:28:32;;;;;;;3.00;2.22;;;;;;;;;;6208324;23;20515;-89
2022/08/13 10:31:09;;;;;;;7.85;2.00;;;;;;;;;;6207754;23;20059;-89
2022/08/13 10:33:35;;;;;;;2.58;2.05;;;;;;;;;;6209461;22;20548;-89
2022/08/13 10:36:02;;;;;;;1.92;1.83;;;;;;;;;;6236675;23;19996;-89
2022/08/13 10:38:29;;;;;;;4.97;2.00;;;;;;;;;;6209816;23;20004;-89
2022/08/13 10:41:00;;;;;;;6.03;2.22;;;;;;;;;;6211191;23;20333;-89
2022/08/13 10:43:26;;;;;;;4.30;2.00;;;;;;;;;;6209762;23;20418;-89
2022/08/13 10:45:56;;;;;;;2.95;1.77;;;;;;;;;;6210613;23;20008;-89
2022/08/13 10:48:25;;;;;;;2.38;1.80;;;;;;;;;;6209662;23;20004;-89
2022/08/13 10:50:52;;;;;;;1.70;1.60;;;;;;;;;;6209886;23;20058;-89
2022/08/13 10:56:03;;;;;;;3.58;1.70;;;;;;;;;;6237460;23;20014;-89
2022/08/13 10:58:30;;;;;;;2.83;2.00;;;;;;;;;;6209944;23;20000;-89
2022/08/13 11:00:56;;;;;;;4.75;1.95;;;;;;;;;;6211567;23;20058;-89
2022/08/13 11:03:22;;;;;;;2.33;1.70;;;;;;;;;;6209335;23;20425;-89
2022/08/13 11:05:48;;;;;;;2.85;1.70;;;;;;;;;;6209830;23;20011;-89
2022/08/13 11:08:15;;;;;;;3.83;2.10;;;;;;;;;;6237263;23;20444;-89
2022/08/13 11:10:41;;;;;;;2.00;1.73;;;;;;;;;;6210102;23;20032;-88
2022/08/13 11:13:07;;;;;;;4.13;2.00;;;;;;;;;;6209457;23;20263;-89
2022/08/13 11:15:33;;;;;;;3.33;2.20;;;;;;;;;;6208706;23;20039;-88
2022/08/13 11:18:00;;;;;;;2.90;1.65;;;;;;;;;;6210456;23;20091;-88
2022/08/13 11:20:29;;;;;;;1.88;1.70;;;;;;;;;;6209815;23;20012;-88
2022/08/13 11:22:56;;;;;;;3.45;1.75;;;;;;;;;;6208444;23;20529;-88
2022/08/13 11:25:23;;;;;;;3.78;2.50;;;;;;;;;;6209284;23;20528;-88
2022/08/13 11:27:50;;;;;;;2.45;1.88;;;;;;;;;;6206707;23;20015;-88
2022/08/13 11:30:17;;;;;;;5.07;1.83;;;;;;;;;;6236277;23;20397;-88
2022/08/13 11:32:43;;;;;;;2.30;2.10;;;;;;;;;;6209569;22;20016;-88
2022/08/13 11:35:09;;;;;;;2.35;2.15;;;;;;;;;;6210527;23;20015;-88
2022/08/13 11:37:36;;;;;;;2.33;2.10;;;;;;;;;;6208685;23;20456;-88
2022/08/13 11:40:03;;;;;;;2.10;1.70;;;;;;;;;;6207906;23;20339;-88
2022/08/13 11:42:30;;;;;;;1.83;1.70;;;;;;;;;;6207626;23;20012;-88
2022/08/13 11:44:56;;;;;;;4.15;1.80;;;;;;;;;;6208966;23;20455;-88
2022/08/13 11:47:22;;;;;;;2.45;2.00;;;;;;;;;;6208117;23;20432;-89
2022/08/13 11:49:48;;;;;;;2.22;2.00;;;;;;;;;;6209556;23;20058;-88
2022/08/13 11:52:14;;;;;;;4.63;1.75;;;;;;;;;;6208769;23;20008;-88
2022/08/13 11:54:40;;;;;;;2.75;1.98;;;;;;;;;;6208272;23;20681;-88
2022/08/13 11:57:07;;;;;;;3.78;1.77;;;;;;;;;;6207271;23;20410;-88
2022/08/13 11:59:33;;;;;;;5.22;1.90;;;;;;;;;;6207947;23;20004;-88
2022/08/13 12:01:59;;;;;;;1.90;1.80;;;;;;;;;;6208841;23;20305;-88
2022/08/13 12:04:26;;;;;;;2.33;1.75;;;;;;;;;;6209618;23;20011;-88
2022/08/13 12:06:52;;;;;;;4.88;2.03;;;;;;;;;;6207083;23;20091;-88
2022/08/13 12:09:18;;;;;;;3.47;1.70;;;;;;;;;;6209173;23;20004;-88
2022/08/13 12:11:45;;;;;;;2.20;1.77;;;;;;;;;;6207448;23;20004;-88
2022/08/13 12:14:11;;;;;;;9.40;1.95;;;;;;;;;;6235809;23;20004;-88
2022/08/13 12:16:37;;;;;;;1.77;1.67;;;;;;;;;;6205606;23;20011;-88
2022/08/13 12:19:03;;;;;;;1.92;1.80;;;;;;;;;;6235620;23;20015;-88
2022/08/13 12:21:29;;;;;;;4.13;1.85;;;;;;;;;;6207100;23;20030;-88
2022/08/13 12:23:55;;;;;;;2.38;2.17;;;;;;;;;;6209058;23;20016;-88
2022/08/13 12:26:21;;;;;;;2.35;1.95;;;;;;;;;;6207942;23;20099;-91
2022/08/13 12:28:47;;;;;;;2.35;1.60;;;;;;;;;;6208318;23;20008;-88
2022/08/13 12:31:17;;;;;;;6.15;1.85;;;;;;;;;;6208312;23;20031;-89
2022/08/13 12:33:50;;;;;;;2.65;2.25;;;;;;;;;;6204860;22;20090;-87
2022/08/13 12:36:16;;;;;;;2.55;1.60;;;;;;;;;;6202135;23;20058;-87
2022/08/13 12:38:42;;;;;;;2.50;1.90;;;;;;;;;;6203824;23;20095;-87
2022/08/13 12:41:08;;;;;;;13.00;1.88;;;;;;;;;;6203526;23;20377;-87
2022/08/13 12:43:34;;;;;;;2.17;1.85;;;;;;;;;;6202481;23;20078;-87
2022/08/13 12:46:00;;;;;;;4.15;1.90;;;;;;;;;;6204740;23;20360;-87
2022/08/13 12:48:30;;;;;;;3.38;1.75;;;;;;;;;;6203988;23;20464;-87
2022/08/13 12:50:56;;;;;;;3.60;2.35;;;;;;;;;;6203349;23;20011;-87
2022/08/13 12:53:22;;;;;;;6.93;2.03;;;;;;;;;;6201308;23;20341;-87
2022/08/13 12:55:48;;;;;;;4.18;2.05;;;;;;;;;;6202880;23;20013;-87
2022/08/13 12:58:17;;;;;;;3.42;2.10;;;;;;;;;;6201569;23;20012;-87
2022/08/13 13:00:44;;;;;;;8.85;2.25;;;;;;;;;;6202879;23;20013;-87
2022/08/13 13:03:11;;;;;;;3.70;2.45;;;;;;;;;;6203979;23;20074;-87
2022/08/13 13:05:37;;;;;;;1.85;1.70;;;;;;;;;;6201279;23;20008;-87
2022/08/13 13:08:13;;;;;;;8.10;2.22;;;;;;;;;;6203947;23;20452;-87
2022/08/13 13:10:39;;;;;;;6.45;1.92;;;;;;;;;;6200872;23;20004;-87
2022/08/13 13:13:05;;;;;;;2.05;1.80;;;;;;;;;;6200967;23;20005;-87
2022/08/13 13:15:31;;;;;;;4.65;2.20;;;;;;;;;;6201458;23;20384;-87
2022/08/13 13:17:57;;;;;;;4.10;1.92;;;;;;;;;;6202777;23;20008;-87
2022/08/13 13:20:23;;;;;;;5.53;2.10;;;;;;;;;;6202915;23;20113;-87
2022/08/13 13:22:49;;;;;;;2.85;2.08;;;;;;;;;;6197308;23;20250;-87
2022/08/13 13:25:15;;;;;;;6.35;2.17;;;;;;;;;;6203153;23;20023;-87
2022/08/13 13:27:41;;;;;;;1.95;1.80;;;;;;;;;;6199783;23;20413;-89
2022/08/13 13:30:12;;;;;;;3.28;2.00;;;;;;;;;;6200498;23;20100;-87
2022/08/13 13:32:39;;;;;;;4.85;2.03;;;;;;;;;;6201798;23;20015;-87
2022/08/13 13:35:05;;;;;;;2.53;2.05;;;;;;;;;;6202622;22;20020;-87
2022/08/13 13:37:42;;;;;;;2.55;1.90;;;;;;;;;;6201240;23;20440;-87
2022/08/13 13:40:09;;;;;;;9.38;1.98;;;;;;;;;;6199222;23;20688;-87
2022/08/13 13:42:35;;;;;;;4.75;2.15;;;;;;;;;;6201202;23;20036;-87
2022/08/13 13:45:01;;;;;;;6.15;2.40;;;;;;;;;;6201305;23;20026;-87
2022/08/13 13:47:29;;;;;;;3.35;1.88;;;;;;;;;;6200774;23;20103;-87
2022/08/13 13:49:55;;;;;;;2.45;2.17;;;;;;;;;;6202908;23;20047;-87
2022/08/13 13:52:21;;;;;;;4.30;2.58;;;;;;;;;;6201413;23;20055;-87
2022/08/13 13:54:49;;;;;;;5.68;1.95;;;;;;;;;;6200756;23;20005;-87
2022/08/13 13:57:15;;;;;;;6.80;2.20;;;;;;;;;;6201252;23;20008;-87
2022/08/13 13:59:41;;;;;;;3.33;2.00;;;;;;;;;;6201611;23;20001;-87
2022/08/13 14:02:07;;;;;;;6.35;2.60;;;;;;;;;;6200280;23;20036;-87
2022/08/13 14:04:33;;;;;;;3.58;2.13;;;;;;;;;;6203261;23;19996;-88
2022/08/13 14:07:03;;;;;;;5.22;1.98;;;;;;;;;;6198834;23;20483;-87
2022/08/13 14:09:30;;;;;;;2.45;1.90;;;;;;;;;;6197594;23;20492;-87
2022/08/13 14:11:56;;;;;;;5.03;1.90;;;;;;;;;;6199315;23;20012;-87
2022/08/13 14:14:22;;;;;;;2.83;2.10;;;;;;;;;;6202966;23;20008;-87
2022/08/13 14:16:50;;;;;;;2.47;2.25;;;;;;;;;;6201860;23;20032;-87
2022/08/13 14:19:19;;;;;;;3.15;2.08;;;;;;;;;;6201616;23;20091;-87
2022/08/13 14:21:46;;;;;;;5.13;2.10;;;;;;;;;;6204461;23;20412;-87
2022/08/13 14:24:12;;;;;;;1.80;1.67;;;;;;;;;;6202422;23;20107;-87
2022/08/13 14:26:38;;;;;;;5.60;2.03;;;;;;;;;;6202409;23;20013;-87
2022/08/13 14:29:06;;;;;;;2.95;2.17;;;;;;;;;;6204864;23;20445;-87
2022/08/13 14:31:33;;;;;;;3.05;1.92;;;;;;;;;;6200825;23;20421;-87
2022/08/13 14:33:59;;;;;;;5.43;2.13;;;;;;;;;;6204817;22;20512;-87
2022/08/13 14:36:27;;;;;;;2.40;2.10;;;;;;;;;;6205190;23;20011;-87
2022/08/13 14:38:53;;;;;;;3.05;1.75;;;;;;;;;;6205676;23;20004;-87
2022/08/13 14:41:19;;;;;;;7.30;2.08;;;;;;;;;;6199227;23;20013;-87
2022/08/13 14:43:48;;;;;;;5.40;2.33;;;;;;;;;;6202642;23;20063;-87
2022/08/13 14:46:16;;;;;;;8.15;2.00;;;;;;;;;;6205381;23;20031;-87
2022/08/13 14:48:42;;;;;;;4.13;2.33;;;;;;;;;;6205254;23;20009;-87
2022/08/13 14:51:08;;;;;;;6.07;1.90;;;;;;;;;;6204159;23;20488;-87
2022/08/13 14:53:35;;;;;;;4.22;2.67;;;;;;;;;;6204508;23;20001;-88
2022/08/13 14:56:01;;;;;;;2.40;2.20;;;;;;;;;;6179829;23;20516;-90
2022/08/13 14:58:28;;;;;;;6.70;2.00;;;;;;;;;;6203321;23;20440;-89
2022/08/13 15:00:55;;;;;;;3.83;1.70;;;;;;;;;;6204811;23;20012;-88
2022/08/13 15:03:22;;;;;;;3.10;1.90;;;;;;;;;;6202960;23;20606;-89